sensor_id;sensor_type;location;lat;lon;timestamp;pressure;altitude;pressure_sealevel;temperature;humidity
48652;BME280;34442;52.362;-1.302;2022-09-13T00:00:56;99910.66;;;15.74;100.00
48652;BME280;34442;52.362;-1.302;2022-09-13T00:03:22;99903.03;;;15.71;100.00
48652;BME280;34442;52.362;-1.302;2022-09-13T00:05:48;99910.28;;;15.65;100.00
48652;BME280;34442;52.362;-1.302;2022-09-13T00:08:15;99916.06;;;15.52;100.00
48652;BME280;34442;52.362;-1.302;2022-09-13T00:10:42;99918.75;;;15.52;100.00
48652;BME280;34442;52.362;-1.302;2022-09-13T00:13:11;99919.81;;;15.51;100.00
48652;BME280;34442;52.362;-1.302;2022-09-13T00:15:45;99912.44;;;15.46;100.00
48652;BME280;34442;52.362;-1.302;2022-09-13T00:18:12;99911.50;;;15.35;100.00
48652;BME280;34442;52.362;-1.302;2022-09-13T00:20:38;99910.97;;;15.38;100.00
48652;BME280;34442;52.362;-1.302;2022-09-13T00:23:04;99914.84;;;15.26;100.00
48652;BME280;34442;52.362;-1.302;2022-09-13T00:25:31;99908.47;;;15.32;100.00
48652;BME280;34442;52.362;-1.302;2022-09-13T00:27:57;99918.16;;;15.28;100.00
48652;BME280;34442;52.362;-1.302;2022-09-13T00:30:25;99912.97;;;15.26;100.00
48652;BME280;34442;52.362;-1.302;2022-09-13T00:32:51;99905.84;;;15.20;100.00
48652;BME280;34442;52.362;-1.302;2022-09-13T00:35:17;99922.53;;;15.12;100.00
48652;BME280;34442;52.362;-1.302;2022-09-13T00:37:43;99915.97;;;15.08;100.00
48652;BME280;34442;52.362;-1.302;2022-09-13T00:40:09;99911.38;;;15.08;100.00
48652;BME280;34442;52.362;-1.302;2022-09-13T00:42:36;99909.97;;;15.06;100.00
48652;BME280;34442;52.362;-1.302;2022-09-13T00:47:55;99909.47;;;15.09;100.00
48652;BME280;34442;52.362;-1.302;2022-09-13T00:50:33;99906.53;;;15.10;100.00
48652;BME280;34442;52.362;-1.302;2022-09-13T00:53:18;99907.59;;;15.09;100.00
48652;BME280;34442;52.362;-1.302;2022-09-13T01:00:46;99914.91;;;14.92;100.00
48652;BME280;34442;52.362;-1.302;2022-09-13T01:03:14;99908.25;;;15.00;100.00
48652;BME280;34442;52.362;-1.302;2022-09-13T01:05:44;99916.97;;;15.02;100.00
48652;BME280;34442;52.362;-1.302;2022-09-13T01:08:12;99912.19;;;14.92;100.00
48652;BME280;34442;52.362;-1.302;2022-09-13T01:10:51;99915.91;;;14.86;100.00
48652;BME280;34442;52.362;-1.302;2022-09-13T01:13:21;99915.56;;;14.82;100.00
48652;BME280;34442;52.362;-1.302;2022-09-13T01:15:48;99911.38;;;14.58;100.00
48652;BME280;34442;52.362;-1.302;2022-09-13T01:18:14;99908.06;;;14.56;100.00
48652;BME280;34442;52.362;-1.302;2022-09-13T01:46:17;99911.88;;;14.43;100.00
48652;BME280;34442;52.362;-1.302;2022-09-13T01:48:58;99913.34;;;14.34;100.00
48652;BME280;34442;52.362;-1.302;2022-09-13T01:51:32;99912.53;;;14.62;100.00
48652;BME280;34442;52.362;-1.302;2022-09-13T01:54:09;99910.88;;;14.61;100.00
48652;BME280;34442;52.362;-1.302;2022-09-13T01:59:23;99918.06;;;14.55;100.00
48652;BME280;34442;52.362;-1.302;2022-09-13T02:02:25;99911.97;;;14.48;100.00
48652;BME280;34442;52.362;-1.302;2022-09-13T02:05:03;99912.22;;;14.47;100.00
48652;BME280;34442;52.362;-1.302;2022-09-13T02:07:35;99915.53;;;14.49;100.00
48652;BME280;34442;52.362;-1.302;2022-09-13T02:10:26;99910.00;;;14.44;100.00
48652;BME280;34442;52.362;-1.302;2022-09-13T02:12:56;99904.03;;;14.42;100.00
48652;BME280;34442;52.362;-1.302;2022-09-13T02:15:26;99903.22;;;14.41;100.00
48652;BME280;34442;52.362;-1.302;2022-09-13T02:18:13;99907.38;;;14.32;100.00
48652;BME280;34442;52.362;-1.302;2022-09-13T02:20:43;99904.75;;;14.37;100.00
48652;BME280;34442;52.362;-1.302;2022-09-13T02:23:15;99908.09;;;14.44;100.00
48652;BME280;34442;52.362;-1.302;2022-09-13T02:25:45;99914.09;;;14.46;100.00
48652;BME280;34442;52.362;-1.302;2022-09-13T02:28:15;99911.97;;;14.48;100.00
48652;BME280;34442;52.362;-1.302;2022-09-13T02:30:49;99914.91;;;14.47;100.00
48652;BME280;34442;52.362;-1.302;2022-09-13T02:33:30;99916.81;;;14.46;100.00
48652;BME280;34442;52.362;-1.302;2022-09-13T02:36:09;99909.16;;;14.55;100.00
48652;BME280;34442;52.362;-1.302;2022-09-13T02:38:43;99914.91;;;14.58;100.00
48652;BME280;34442;52.362;-1.302;2022-09-13T02:41:18;99906.63;;;14.65;100.00
48652;BME280;34442;52.362;-1.302;2022-09-13T02:43:52;99903.59;;;14.61;100.00
48652;BME280;34442;52.362;-1.302;2022-09-13T02:52:13;99910.69;;;14.51;100.00
48652;BME280;34442;52.362;-1.302;2022-09-13T02:54:57;99904.56;;;14.55;100.00
48652;BME280;34442;52.362;-1.302;2022-09-13T02:57:37;99899.72;;;14.57;100.00
48652;BME280;34442;52.362;-1.302;2022-09-13T03:00:04;99906.81;;;14.47;100.00
48652;BME280;34442;52.362;-1.302;2022-09-13T03:02:31;99908.84;;;14.39;100.00
48652;BME280;34442;52.362;-1.302;2022-09-13T03:04:59;99916.78;;;14.29;100.00
48652;BME280;34442;52.362;-1.302;2022-09-13T03:07:26;99919.34;;;14.36;100.00
48652;BME280;34442;52.362;-1.302;2022-09-13T03:09:59;99921.06;;;14.42;100.00
48652;BME280;34442;52.362;-1.302;2022-09-13T03:20:55;99908.59;;;14.24;100.00
48652;BME280;34442;52.362;-1.302;2022-09-13T03:34:28;99901.63;;;14.00;100.00
48652;BME280;34442;52.362;-1.302;2022-09-13T03:37:04;99899.16;;;13.98;100.00
48652;BME280;34442;52.362;-1.302;2022-09-13T03:42:01;99909.16;;;13.98;100.00
48652;BME280;34442;52.362;-1.302;2022-09-13T03:44:31;99904.22;;;13.95;100.00
48652;BME280;34442;52.362;-1.302;2022-09-13T03:47:01;99897.19;;;13.94;100.00
48652;BME280;34442;52.362;-1.302;2022-09-13T03:49:29;99888.88;;;13.83;100.00
48652;BME280;34442;52.362;-1.302;2022-09-13T03:51:56;99896.53;;;13.75;100.00
48652;BME280;34442;52.362;-1.302;2022-09-13T03:54:28;99914.75;;;13.79;100.00
48652;BME280;34442;52.362;-1.302;2022-09-13T03:57:16;99903.25;;;13.72;100.00
48652;BME280;34442;52.362;-1.302;2022-09-13T03:59:53;99910.53;;;13.72;100.00
48652;BME280;34442;52.362;-1.302;2022-09-13T04:02:21;99918.38;;;13.73;100.00
48652;BME280;34442;52.362;-1.302;2022-09-13T04:04:48;99910.28;;;13.73;100.00
48652;BME280;34442;52.362;-1.302;2022-09-13T04:07:17;99897.25;;;13.70;100.00
48652;BME280;34442;52.362;-1.302;2022-09-13T04:09:43;99900.34;;;13.62;100.00
48652;BME280;34442;52.362;-1.302;2022-09-13T04:12:12;99916.66;;;13.55;100.00
48652;BME280;34442;52.362;-1.302;2022-09-13T04:14:39;99919.13;;;13.57;100.00
48652;BME280;34442;52.362;-1.302;2022-09-13T04:17:06;99911.50;;;13.54;100.00
48652;BME280;34442;52.362;-1.302;2022-09-13T04:19:32;99901.75;;;13.53;100.00
48652;BME280;34442;52.362;-1.302;2022-09-13T04:21:58;99907.88;;;13.48;100.00
48652;BME280;34442;52.362;-1.302;2022-09-13T04:24:26;99910.81;;;13.47;100.00
48652;BME280;34442;52.362;-1.302;2022-09-13T04:26:53;99903.41;;;13.42;100.00
48652;BME280;34442;52.362;-1.302;2022-09-13T04:29:20;99906.47;;;13.46;100.00
48652;BME280;34442;52.362;-1.302;2022-09-13T04:31:48;99901.31;;;13.32;100.00
48652;BME280;34442;52.362;-1.302;2022-09-13T04:34:15;99916.22;;;13.35;100.00
48652;BME280;34442;52.362;-1.302;2022-09-13T04:36:44;99919.63;;;13.30;100.00
48652;BME280;34442;52.362;-1.302;2022-09-13T04:39:10;99911.75;;;13.29;100.00
48652;BME280;34442;52.362;-1.302;2022-09-13T04:41:42;99911.28;;;13.32;100.00
48652;BME280;34442;52.362;-1.302;2022-09-13T04:44:09;99910.81;;;13.35;100.00
48652;BME280;34442;52.362;-1.302;2022-09-13T04:46:35;99917.50;;;13.32;100.00
48652;BME280;34442;52.362;-1.302;2022-09-13T04:49:01;99913.06;;;13.26;100.00
48652;BME280;34442;52.362;-1.302;2022-09-13T04:51:28;99918.91;;;13.23;100.00
48652;BME280;34442;52.362;-1.302;2022-09-13T04:53:55;99918.44;;;13.14;100.00
48652;BME280;34442;52.362;-1.302;2022-09-13T04:56:23;99927.03;;;13.23;100.00
48652;BME280;34442;52.362;-1.302;2022-09-13T04:58:53;99920.16;;;13.21;100.00
48652;BME280;34442;52.362;-1.302;2022-09-13T05:01:20;99915.63;;;13.21;100.00
48652;BME280;34442;52.362;-1.302;2022-09-13T05:03:46;99922.31;;;13.19;100.00
48652;BME280;34442;52.362;-1.302;2022-09-13T05:06:14;99924.19;;;13.18;100.00
48652;BME280;34442;52.362;-1.302;2022-09-13T05:08:43;99924.63;;;13.15;100.00
48652;BME280;34442;52.362;-1.302;2022-09-13T05:11:09;99912.66;;;13.11;100.00
48652;BME280;34442;52.362;-1.302;2022-09-13T05:13:35;99909.41;;;13.09;100.00
48652;BME280;34442;52.362;-1.302;2022-09-13T05:16:06;99924.28;;;13.11;100.00
48652;BME280;34442;52.362;-1.302;2022-09-13T05:18:34;99927.69;;;13.07;100.00
48652;BME280;34442;52.362;-1.302;2022-09-13T05:21:03;99928.75;;;13.06;100.00
48652;BME280;34442;52.362;-1.302;2022-09-13T05:23:30;99933.91;;;13.07;100.00
48652;BME280;34442;52.362;-1.302;2022-09-13T05:25:59;99934.72;;;13.08;100.00
48652;BME280;34442;52.362;-1.302;2022-09-13T05:28:30;99930.75;;;13.10;100.00
48652;BME280;34442;52.362;-1.302;2022-09-13T05:31:07;99930.75;;;13.10;100.00
48652;BME280;34442;52.362;-1.302;2022-09-13T05:33:36;99939.41;;;13.12;100.00
48652;BME280;34442;52.362;-1.302;2022-09-13T05:36:04;99934.50;;;13.09;100.00
48652;BME280;34442;52.362;-1.302;2022-09-13T05:38:31;99938.25;;;13.08;100.00
48652;BME280;34442;52.362;-1.302;2022-09-13T05:40:59;99944.94;;;13.06;100.00
48652;BME280;34442;52.362;-1.302;2022-09-13T05:43:31;99947.03;;;13.04;100.00
48652;BME280;34442;52.362;-1.302;2022-09-13T05:46:05;99952.44;;;13.04;100.00
48652;BME280;34442;52.362;-1.302;2022-09-13T05:48:33;99956.66;;;13.00;100.00
48652;BME280;34442;52.362;-1.302;2022-09-13T05:53:40;99941.19;;;13.07;100.00
48652;BME280;34442;52.362;-1.302;2022-09-13T05:56:08;99952.59;;;13.09;100.00
48652;BME280;34442;52.362;-1.302;2022-09-13T05:58:38;99953.41;;;13.09;100.00
48652;BME280;34442;52.362;-1.302;2022-09-13T06:01:04;99944.84;;;13.01;100.00
48652;BME280;34442;52.362;-1.302;2022-09-13T06:03:30;99954.69;;;13.07;100.00
48652;BME280;34442;52.362;-1.302;2022-09-13T06:05:56;99951.53;;;13.10;100.00
48652;BME280;34442;52.362;-1.302;2022-09-13T06:08:25;99951.88;;;13.13;100.00
48652;BME280;34442;52.362;-1.302;2022-09-13T06:11:02;99962.69;;;13.13;100.00
48652;BME280;34442;52.362;-1.302;2022-09-13T06:13:29;99968.66;;;13.15;100.00
48652;BME280;34442;52.362;-1.302;2022-09-13T06:15:56;99967.13;;;13.20;100.00
48652;BME280;34442;52.362;-1.302;2022-09-13T06:18:23;99959.28;;;13.18;100.00
48652;BME280;34442;52.362;-1.302;2022-09-13T06:20:50;99960.91;;;13.19;100.00
48652;BME280;34442;52.362;-1.302;2022-09-13T06:23:17;99964.00;;;13.23;100.00
48652;BME280;34442;52.362;-1.302;2022-09-13T06:25:42;99961.88;;;13.25;100.00
48652;BME280;34442;52.362;-1.302;2022-09-13T06:28:09;99959.84;;;13.20;100.00
48652;BME280;34442;52.362;-1.302;2022-09-13T06:30:35;99964.66;;;13.18;100.00
48652;BME280;34442;52.362;-1.302;2022-09-13T06:33:01;99963.84;;;13.18;100.00
48652;BME280;34442;52.362;-1.302;2022-09-13T06:35:27;99960.44;;;13.22;100.00
48652;BME280;34442;52.362;-1.302;2022-09-13T06:37:56;99953.78;;;13.25;100.00
48652;BME280;34442;52.362;-1.302;2022-09-13T06:40:23;99948.16;;;13.26;100.00
48652;BME280;34442;52.362;-1.302;2022-09-13T06:42:49;99947.44;;;13.31;100.00
48652;BME280;34442;52.362;-1.302;2022-09-13T06:45:16;99951.06;;;13.36;100.00
48652;BME280;34442;52.362;-1.302;2022-09-13T06:47:42;99947.09;;;13.39;100.00
48652;BME280;34442;52.362;-1.302;2022-09-13T06:50:08;99949.09;;;13.44;100.00
48652;BME280;34442;52.362;-1.302;2022-09-13T06:52:34;99951.22;;;13.42;100.00
48652;BME280;34442;52.362;-1.302;2022-09-13T06:55:00;99966.34;;;13.43;100.00
48652;BME280;34442;52.362;-1.302;2022-09-13T06:57:29;99961.53;;;13.45;100.00
48652;BME280;34442;52.362;-1.302;2022-09-13T06:59:55;99956.47;;;13.48;100.00
48652;BME280;34442;52.362;-1.302;2022-09-13T07:02:21;99939.44;;;13.48;100.00
48652;BME280;34442;52.362;-1.302;2022-09-13T07:04:49;99957.28;;;13.49;100.00
48652;BME280;34442;52.362;-1.302;2022-09-13T07:07:15;99949.31;;;13.54;100.00
48652;BME280;34442;52.362;-1.302;2022-09-13T07:09:41;99939.91;;;13.45;100.00
48652;BME280;34442;52.362;-1.302;2022-09-13T07:12:07;99935.22;;;13.52;100.00
48652;BME280;34442;52.362;-1.302;2022-09-13T07:14:33;99938.84;;;13.57;100.00
48652;BME280;34442;52.362;-1.302;2022-09-13T07:16:59;99936.38;;;13.56;100.00
48652;BME280;34442;52.362;-1.302;2022-09-13T07:19:27;99939.19;;;13.61;100.00
48652;BME280;34442;52.362;-1.302;2022-09-13T07:21:54;99935.31;;;13.57;100.00
48652;BME280;34442;52.362;-1.302;2022-09-13T07:24:21;99934.97;;;13.53;100.00
48652;BME280;34442;52.362;-1.302;2022-09-13T07:26:48;99931.00;;;13.56;100.00
48652;BME280;34442;52.362;-1.302;2022-09-13T07:29:17;99934.25;;;13.70;100.00
48652;BME280;34442;52.362;-1.302;2022-09-13T07:31:46;99945.88;;;13.70;100.00
48652;BME280;34442;52.362;-1.302;2022-09-13T07:36:40;99951.84;;;13.84;100.00
48652;BME280;34442;52.362;-1.302;2022-09-13T07:39:07;99945.59;;;13.95;100.00
48652;BME280;34442;52.362;-1.302;2022-09-13T07:41:34;99942.41;;;13.98;100.00
48652;BME280;34442;52.362;-1.302;2022-09-13T07:44:00;99952.81;;;14.06;100.00
48652;BME280;34442;52.362;-1.302;2022-09-13T07:46:28;99956.81;;;14.15;100.00
48652;BME280;34442;52.362;-1.302;2022-09-13T07:48:59;99960.28;;;14.28;100.00
48652;BME280;34442;52.362;-1.302;2022-09-13T07:51:34;99958.97;;;14.30;100.00
48652;BME280;34442;52.362;-1.302;2022-09-13T07:54:06;99962.69;;;14.41;100.00
48652;BME280;34442;52.362;-1.302;2022-09-13T07:56:34;99950.09;;;14.47;100.00
48652;BME280;34442;52.362;-1.302;2022-09-13T07:59:03;99956.75;;;14.56;100.00
48652;BME280;34442;52.362;-1.302;2022-09-13T08:01:38;99956.28;;;14.59;100.00
48652;BME280;34442;52.362;-1.302;2022-09-13T08:04:07;99964.88;;;14.56;100.00
48652;BME280;34442;52.362;-1.302;2022-09-13T08:06:35;99952.28;;;14.61;100.00
48652;BME280;34442;52.362;-1.302;2022-09-13T08:09:03;99961.44;;;14.60;100.00
48652;BME280;34442;52.362;-1.302;2022-09-13T08:11:31;99959.00;;;14.59;100.00
48652;BME280;34442;52.362;-1.302;2022-09-13T08:13:58;99950.56;;;14.72;100.00
48652;BME280;34442;52.362;-1.302;2022-09-13T08:16:26;99965.03;;;14.78;100.00
48652;BME280;34442;52.362;-1.302;2022-09-13T08:18:54;99958.44;;;14.74;100.00
48652;BME280;34442;52.362;-1.302;2022-09-13T08:21:22;99944.16;;;14.61;100.00
48652;BME280;34442;52.362;-1.302;2022-09-13T08:23:48;99953.03;;;14.74;100.00
48652;BME280;34442;52.362;-1.302;2022-09-13T08:26:15;99945.50;;;14.93;100.00
48652;BME280;34442;52.362;-1.302;2022-09-13T08:28:41;99942.16;;;15.02;100.00
48652;BME280;34442;52.362;-1.302;2022-09-13T08:31:10;99948.03;;;14.99;100.00
48652;BME280;34442;52.362;-1.302;2022-09-13T08:33:37;99942.56;;;14.94;100.00
48652;BME280;34442;52.362;-1.302;2022-09-13T08:36:03;99954.84;;;15.19;100.00
48652;BME280;34442;52.362;-1.302;2022-09-13T08:38:30;99957.69;;;15.46;100.00
48652;BME280;34442;52.362;-1.302;2022-09-13T08:40:59;99951.78;;;15.49;100.00
48652;BME280;34442;52.362;-1.302;2022-09-13T08:43:48;99949.88;;;15.66;100.00
48652;BME280;34442;52.362;-1.302;2022-09-13T08:46:40;99943.69;;;15.71;100.00
48652;BME280;34442;52.362;-1.302;2022-09-13T08:49:29;99938.78;;;15.68;100.00
48652;BME280;34442;52.362;-1.302;2022-09-13T08:51:59;99941.25;;;15.69;100.00
48652;BME280;34442;52.362;-1.302;2022-09-13T08:54:27;99937.94;;;15.67;100.00
48652;BME280;34442;52.362;-1.302;2022-09-13T08:57:06;99930.19;;;15.76;100.00
48652;BME280;34442;52.362;-1.302;2022-09-13T09:00:03;99938.91;;;15.78;100.00
48652;BME280;34442;52.362;-1.302;2022-09-13T09:05:21;99923.34;;;15.90;100.00
48652;BME280;34442;52.362;-1.302;2022-09-13T09:08:05;99926.00;;;15.85;100.00
48652;BME280;34442;52.362;-1.302;2022-09-13T09:10:41;99922.56;;;15.95;100.00
48652;BME280;34442;52.362;-1.302;2022-09-13T09:13:18;99913.69;;;15.77;100.00
48652;BME280;34442;52.362;-1.302;2022-09-13T09:15:52;99901.47;;;15.75;100.00
48652;BME280;34442;52.362;-1.302;2022-09-13T09:18:23;99898.44;;;15.71;100.00
48652;BME280;34442;52.362;-1.302;2022-09-13T09:20:55;99893.31;;;15.75;100.00
48652;BME280;34442;52.362;-1.302;2022-09-13T09:25:55;99886.97;;;15.86;100.00
48652;BME280;34442;52.362;-1.302;2022-09-13T09:28:22;99896.69;;;15.82;100.00
48652;BME280;34442;52.362;-1.302;2022-09-13T09:31:03;99893.31;;;15.75;100.00
48652;BME280;34442;52.362;-1.302;2022-09-13T09:33:58;99884.97;;;15.76;100.00
48652;BME280;34442;52.362;-1.302;2022-09-13T09:39:10;99865.00;;;15.87;100.00
48652;BME280;34442;52.362;-1.302;2022-09-13T09:41:37;99868.13;;;15.74;100.00
48652;BME280;34442;52.362;-1.302;2022-09-13T09:44:21;99875.78;;;15.60;100.00
48652;BME280;34442;52.362;-1.302;2022-09-13T09:52:44;99879.00;;;15.79;100.00
48652;BME280;34442;52.362;-1.302;2022-09-13T09:55:28;99880.72;;;15.85;100.00
48652;BME280;34442;52.362;-1.302;2022-09-13T09:57:56;99887.91;;;15.97;100.00
48652;BME280;34442;52.362;-1.302;2022-09-13T10:00:28;99884.03;;;16.15;100.00
48652;BME280;34442;52.362;-1.302;2022-09-13T10:03:03;99888.09;;;16.44;100.00
48652;BME280;34442;52.362;-1.302;2022-09-13T10:05:31;99891.31;;;16.68;100.00
48652;BME280;34442;52.362;-1.302;2022-09-13T10:08:05;99887.63;;;16.79;100.00
48652;BME280;34442;52.362;-1.302;2022-09-13T10:10:34;99890.91;;;16.81;100.00
48652;BME280;34442;52.362;-1.302;2022-09-13T10:13:03;99891.97;;;16.80;100.00
48652;BME280;34442;52.362;-1.302;2022-09-13T10:15:30;99892.81;;;16.86;100.00
48652;BME280;34442;52.362;-1.302;2022-09-13T10:18:16;99878.09;;;16.77;100.00
48652;BME280;34442;52.362;-1.302;2022-09-13T10:21:19;99876.13;;;16.72;100.00
48652;BME280;34442;52.362;-1.302;2022-09-13T10:23:45;99870.06;;;16.60;100.00
48652;BME280;34442;52.362;-1.302;2022-09-13T10:26:19;99867.53;;;16.48;100.00
48652;BME280;34442;52.362;-1.302;2022-09-13T10:31:20;99866.88;;;16.36;100.00
48652;BME280;34442;52.362;-1.302;2022-09-13T10:33:56;99870.69;;;16.40;100.00
48652;BME280;34442;52.362;-1.302;2022-09-13T10:36:32;99862.72;;;16.28;100.00
48652;BME280;34442;52.362;-1.302;2022-09-13T10:39:01;99854.03;;;16.26;100.00
48652;BME280;34442;52.362;-1.302;2022-09-13T10:41:30;99862.72;;;16.28;100.00
48652;BME280;34442;52.362;-1.302;2022-09-13T10:43:58;99866.06;;;16.35;100.00
48652;BME280;34442;52.362;-1.302;2022-09-13T10:46:27;99862.28;;;16.42;100.00
48652;BME280;34442;52.362;-1.302;2022-09-13T10:48:54;99858.06;;;16.51;100.00
48652;BME280;34442;52.362;-1.302;2022-09-13T10:54:19;99868.88;;;16.78;100.00
48652;BME280;34442;52.362;-1.302;2022-09-13T10:56:46;99883.31;;;16.83;100.00
48652;BME280;34442;52.362;-1.302;2022-09-13T10:59:24;99879.63;;;17.00;100.00
48652;BME280;34442;52.362;-1.302;2022-09-13T11:07:55;99880.25;;;17.12;100.00
48652;BME280;34442;52.362;-1.302;2022-09-13T11:13:40;99881.41;;;17.21;100.00
48652;BME280;34442;52.362;-1.302;2022-09-13T11:21:49;99877.81;;;17.68;100.00
48652;BME280;34442;52.362;-1.302;2022-09-13T11:29:52;99880.81;;;17.67;100.00
48652;BME280;34442;52.362;-1.302;2022-09-13T11:47:01;99864.13;;;17.48;100.00
48652;BME280;34442;52.362;-1.302;2022-09-13T11:55:30;99865.41;;;17.30;100.00
48652;BME280;34442;52.362;-1.302;2022-09-13T11:58:00;99865.22;;;17.47;100.00
48652;BME280;34442;52.362;-1.302;2022-09-13T12:00:43;99868.00;;;17.57;100.00
48652;BME280;34442;52.362;-1.302;2022-09-13T12:05:48;99871.44;;;18.00;100.00
48652;BME280;34442;52.362;-1.302;2022-09-13T12:08:21;99865.13;;;17.89;100.00
48652;BME280;34442;52.362;-1.302;2022-09-13T12:10:53;99872.53;;;17.99;100.00
48652;BME280;34442;52.362;-1.302;2022-09-13T12:13:26;99868.44;;;17.96;100.00
48652;BME280;34442;52.362;-1.302;2022-09-13T12:16:00;99869.75;;;17.89;100.00
48652;BME280;34442;52.362;-1.302;2022-09-13T12:18:33;99880.91;;;17.87;100.00
48652;BME280;34442;52.362;-1.302;2022-09-13T12:21:15;99882.81;;;17.87;100.00
48652;BME280;34442;52.362;-1.302;2022-09-13T12:26:46;99880.91;;;17.82;100.00
48652;BME280;34442;52.362;-1.302;2022-09-13T12:31:45;99876.88;;;17.95;100.00
48652;BME280;34442;52.362;-1.302;2022-09-13T12:34:23;99882.25;;;17.90;100.00
48652;BME280;34442;52.362;-1.302;2022-09-13T12:37:06;99891.22;;;17.85;100.00
48652;BME280;34442;52.362;-1.302;2022-09-13T12:45:12;99883.63;;;17.82;100.00
48652;BME280;34442;52.362;-1.302;2022-09-13T12:59:09;99871.22;;;18.32;100.00
48652;BME280;34442;52.362;-1.302;2022-09-13T13:01:43;99876.41;;;18.44;100.00
48652;BME280;34442;52.362;-1.302;2022-09-13T13:04:16;99867.97;;;18.40;100.00
48652;BME280;34442;52.362;-1.302;2022-09-13T13:09:38;99866.59;;;18.58;100.00
48652;BME280;34442;52.362;-1.302;2022-09-13T13:12:09;99869.09;;;18.70;100.00
48652;BME280;34442;52.362;-1.302;2022-09-13T13:19:59;99869.88;;;18.50;100.00
48652;BME280;34442;52.362;-1.302;2022-09-13T13:25:33;99864.38;;;18.09;100.00
48652;BME280;34442;52.362;-1.302;2022-09-13T13:28:02;99853.78;;;18.02;100.00
48652;BME280;34442;52.362;-1.302;2022-09-13T13:33:14;99853.19;;;17.90;100.00
48652;BME280;34442;52.362;-1.302;2022-09-13T13:35:40;99850.72;;;17.94;100.00
48652;BME280;34442;52.362;-1.302;2022-09-13T13:41:06;99850.78;;;18.14;100.00
48652;BME280;34442;52.362;-1.302;2022-09-13T13:43:34;99843.19;;;18.16;100.00
48652;BME280;34442;52.362;-1.302;2022-09-13T13:48:39;99842.91;;;18.33;100.00
48652;BME280;34442;52.362;-1.302;2022-09-13T13:53:47;99839.91;;;18.55;100.00
48652;BME280;34442;52.362;-1.302;2022-09-13T13:56:19;99833.38;;;18.51;100.00
48652;BME280;34442;52.362;-1.302;2022-09-13T13:59:02;99831.22;;;18.53;100.00
48652;BME280;34442;52.362;-1.302;2022-09-13T14:01:32;99838.28;;;18.33;100.00
48652;BME280;34442;52.362;-1.302;2022-09-13T14:04:08;99833.66;;;18.34;100.00
48652;BME280;34442;52.362;-1.302;2022-09-13T14:20:24;99824.69;;;18.54;100.00
48652;BME280;34442;52.362;-1.302;2022-09-13T14:23:18;99830.69;;;18.56;100.00
48652;BME280;34442;52.362;-1.302;2022-09-13T14:25:45;99823.59;;;18.65;100.00
48652;BME280;34442;52.362;-1.302;2022-09-13T14:28:20;99820.88;;;18.60;100.00
48652;BME280;34442;52.362;-1.302;2022-09-13T14:30:52;99815.16;;;18.62;100.00
48652;BME280;34442;52.362;-1.302;2022-09-13T14:33:27;99826.84;;;18.62;100.00
48652;BME280;34442;52.362;-1.302;2022-09-13T14:35:59;99818.41;;;18.69;100.00
48652;BME280;34442;52.362;-1.302;2022-09-13T14:38:28;99811.63;;;18.71;100.00
48652;BME280;34442;52.362;-1.302;2022-09-13T14:41:13;99809.47;;;18.73;100.00
48652;BME280;34442;52.362;-1.302;2022-09-13T14:43:40;99806.19;;;18.71;100.00
48652;BME280;34442;52.362;-1.302;2022-09-13T14:48:50;99806.19;;;18.56;100.00
48652;BME280;34442;52.362;-1.302;2022-09-13T14:54:15;99801.00;;;18.54;100.00
48652;BME280;34442;52.362;-1.302;2022-09-13T14:56:50;99794.44;;;18.55;100.00
48652;BME280;34442;52.362;-1.302;2022-09-13T14:59:42;99796.91;;;18.57;100.00
48652;BME280;34442;52.362;-1.302;2022-09-13T15:02:36;99793.63;;;18.55;100.00
48652;BME280;34442;52.362;-1.302;2022-09-13T15:05:07;99789.28;;;18.59;100.00
48652;BME280;34442;52.362;-1.302;2022-09-13T15:07:38;99786.84;;;18.52;100.00
48652;BME280;34442;52.362;-1.302;2022-09-13T15:15:24;99778.66;;;18.68;100.00
48652;BME280;34442;52.362;-1.302;2022-09-13T15:17:59;99782.75;;;18.65;100.00
48652;BME280;34442;52.362;-1.302;2022-09-13T15:20:29;99786.03;;;18.57;100.00
48652;BME280;34442;52.362;-1.302;2022-09-13T15:22:56;99780.03;;;18.50;100.00
48652;BME280;34442;52.362;-1.302;2022-09-13T15:25:27;99773.25;;;18.52;100.00
48652;BME280;34442;52.362;-1.302;2022-09-13T15:27:55;99769.16;;;18.50;100.00
48652;BME280;34442;52.362;-1.302;2022-09-13T15:30:29;99769.16;;;18.50;100.00
48652;BME280;34442;52.362;-1.302;2022-09-13T15:35:37;99763.44;;;18.41;100.00
48652;BME280;34442;52.362;-1.302;2022-09-13T15:40:47;99760.47;;;18.48;100.00
48652;BME280;34442;52.362;-1.302;2022-09-13T15:43:22;99758.25;;;18.50;100.00
48652;BME280;34442;52.362;-1.302;2022-09-13T15:45:48;99758.25;;;18.55;100.00
48652;BME280;34442;52.362;-1.302;2022-09-13T15:48:29;99752.00;;;18.54;100.00
48652;BME280;34442;52.362;-1.302;2022-09-13T15:51:05;99753.91;;;18.49;100.00
48652;BME280;34442;52.362;-1.302;2022-09-13T15:53:33;99762.59;;;18.51;100.00
48652;BME280;34442;52.362;-1.302;2022-09-13T15:56:00;99755.28;;;18.46;100.00
48652;BME280;34442;52.362;-1.302;2022-09-13T15:58:26;99748.75;;;18.42;100.00
48652;BME280;34442;52.362;-1.302;2022-09-13T16:00:52;99751.44;;;18.47;100.00
48652;BME280;34442;52.362;-1.302;2022-09-13T16:03:19;99753.09;;;18.53;100.00
48652;BME280;34442;52.362;-1.302;2022-09-13T16:05:45;99743.81;;;18.54;100.00
48652;BME280;34442;52.362;-1.302;2022-09-13T16:08:11;99743.56;;;18.51;100.00
48652;BME280;34442;52.362;-1.302;2022-09-13T16:10:37;99740.03;;;18.50;100.00
48652;BME280;34442;52.362;-1.302;2022-09-13T16:13:06;99743.59;;;18.41;100.00
48652;BME280;34442;52.362;-1.302;2022-09-13T16:15:33;99739.22;;;18.34;100.00
48652;BME280;34442;52.362;-1.302;2022-09-13T16:17:59;99735.69;;;18.34;100.00
48652;BME280;34442;52.362;-1.302;2022-09-13T16:20:25;99734.59;;;18.30;100.00
48652;BME280;34442;52.362;-1.302;2022-09-13T16:22:53;99729.16;;;18.30;100.00
48652;BME280;34442;52.362;-1.302;2022-09-13T16:25:19;99735.41;;;18.30;100.00